TAF and METAR

Could not understand the following METAR

YBAS 170300Z AUTO 09009KT 9999 // NCD 17/04 Q1024 RF00.0/000.0

TAF for Alice Springs Airport

TAF YBAS 162303Z 1700/1724 12010KT CAVOK FM171400 VRB03KT CAVOK
Report created 17. jul 01:03

between 17. jul 02:00 - 17. jul 02:00

wind 10 knots from ESE (120°) Clear sky

From 17. jul 16:00

wind 3 knots from various directions Clear sky